createdAt,value
2022-08-04T00:00:28.447Z,19.20
2022-08-04T00:03:19.578Z,19.30
2022-08-04T00:06:17.540Z,19.30
2022-08-04T00:09:10.197Z,19.30
2022-08-04T00:12:01.232Z,19.20
2022-08-04T00:14:49.580Z,19.10
2022-08-04T00:17:46.400Z,19.10
2022-08-04T00:20:37.328Z,19.10
2022-08-04T00:23:25.024Z,19.10
2022-08-04T00:26:11.551Z,19.10
2022-08-04T00:28:58.072Z,19.20
2022-08-04T00:31:56.714Z,19.20
2022-08-04T00:34:44.168Z,19.40
2022-08-04T00:37:29.852Z,19.70
2022-08-04T00:41:11.106Z,19.70
2022-08-04T00:44:23.208Z,19.60
2022-08-04T00:47:28.322Z,19.60
2022-08-04T00:50:31.105Z,19.80
2022-08-04T00:53:38.374Z,19.90
2022-08-04T00:56:57.058Z,20.00
2022-08-04T01:00:11.928Z,20.10
2022-08-04T01:03:12.638Z,20.20
2022-08-04T01:06:32.708Z,20.30
2022-08-04T01:09:24.552Z,20.20
2022-08-04T01:12:13.368Z,20.10
2022-08-04T01:15:07.245Z,20.10
2022-08-04T01:18:03.683Z,20.10
2022-08-04T01:21:21.638Z,20.10
2022-08-04T01:24:29.628Z,20.20
2022-08-04T01:27:47.791Z,20.30
2022-08-04T01:30:36.241Z,20.30
2022-08-04T01:33:24.384Z,20.30
2022-08-04T01:36:12.003Z,20.30
2022-08-04T01:38:58.450Z,20.20
2022-08-04T01:41:44.763Z,20.10
2022-08-04T01:44:48.683Z,20.10
2022-08-04T01:47:36.631Z,20.10
2022-08-04T01:50:26.836Z,20.10
2022-08-04T01:53:13.092Z,20.20
2022-08-04T01:56:01.335Z,20.30
2022-08-04T01:58:47.375Z,20.30
2022-08-04T02:01:37.474Z,20.30
2022-08-04T02:04:23.848Z,20.20
2022-08-04T02:07:17.137Z,20.30
2022-08-04T02:10:10.772Z,20.30
2022-08-04T02:13:15.617Z,20.20
2022-08-04T02:16:46.932Z,20.10
2022-08-04T02:19:57.518Z,20.00
2022-08-04T02:23:29.583Z,19.90
2022-08-04T02:26:22.480Z,19.80
2022-08-04T02:29:16.994Z,19.90
2022-08-04T02:32:39.653Z,19.90
2022-08-04T02:35:32.089Z,20.00
2022-08-04T02:38:32.917Z,20.00
2022-08-04T02:41:21.987Z,20.00
2022-08-04T02:44:10.366Z,19.90
2022-08-04T02:46:56.879Z,19.70
2022-08-04T02:49:44.723Z,19.60
2022-08-04T02:52:31.737Z,19.60
2022-08-04T02:55:18.677Z,19.50
2022-08-04T02:58:34.026Z,19.40
2022-08-04T03:01:23.287Z,19.20
2022-08-04T03:04:24.359Z,19.10
2022-08-04T03:07:28.273Z,18.90
2022-08-04T03:10:43.630Z,18.70
2022-08-04T03:13:51.007Z,18.60
2022-08-04T03:16:55.637Z,18.50
2022-08-04T03:20:00.095Z,18.40
2022-08-04T03:23:12.466Z,18.40
2022-08-04T03:26:37.251Z,18.30
2022-08-04T03:30:00.657Z,18.30
2022-08-04T03:33:09.704Z,18.30
2022-08-04T03:36:35.014Z,18.30
2022-08-04T03:39:35.725Z,18.30
2022-08-04T03:42:21.479Z,18.30
2022-08-04T03:45:25.793Z,18.10
2022-08-04T03:48:30.791Z,18.00
2022-08-04T03:51:52.608Z,18.00
2022-08-04T03:54:57.132Z,18.10
2022-08-04T03:57:52.384Z,18.20
2022-08-04T04:00:47.356Z,18.30
2022-08-04T04:04:00.561Z,18.50
2022-08-04T04:07:32.840Z,18.60
2022-08-04T04:10:47.447Z,18.80
2022-08-04T04:14:01.236Z,19.00
2022-08-04T04:17:05.810Z,19.10
2022-08-04T04:20:14.892Z,19.20
2022-08-04T04:23:15.735Z,19.30
2022-08-04T04:26:23.589Z,19.30
2022-08-04T04:29:24.447Z,19.40
2022-08-04T04:32:39.108Z,19.40
2022-08-04T04:35:43.373Z,19.40
2022-08-04T04:38:52.999Z,19.50
2022-08-04T04:42:23.272Z,19.60
2022-08-04T04:45:20.785Z,19.80
2022-08-04T04:48:24.995Z,20.00
2022-08-04T04:51:28.823Z,20.40
2022-08-04T04:54:28.664Z,20.70
2022-08-04T04:57:53.370Z,21.00
2022-08-04T05:01:11.099Z,21.30
2022-08-04T05:03:57.002Z,21.70
2022-08-04T05:07:21.550Z,22.10
2022-08-04T05:10:24.156Z,22.40
2022-08-04T05:14:38.678Z,23.30
2022-08-04T05:16:39.982Z,24.50
2022-08-04T05:19:42.952Z,25.90
2022-08-04T05:22:43.509Z,27.00
2022-08-04T05:25:58.735Z,28.00
2022-08-04T05:28:53.637Z,28.80
2022-08-04T05:31:49.927Z,29.40
2022-08-04T05:34:49.428Z,29.70
2022-08-04T05:37:38.747Z,30.10
2022-08-04T05:40:26.829Z,30.10
2022-08-04T05:43:14.405Z,30.30
2022-08-04T05:46:01.126Z,30.10
2022-08-04T05:48:47.826Z,30.50
2022-08-04T05:51:35.198Z,30.60
2022-08-04T05:54:22.874Z,30.50
2022-08-04T05:57:10.082Z,30.40
2022-08-04T05:59:58.809Z,30.30
2022-08-04T06:02:47.907Z,30.10
2022-08-04T06:05:34.120Z,30.40
2022-08-04T06:08:20.531Z,30.50
2022-08-04T06:11:09.780Z,30.70
2022-08-04T06:13:59.112Z,30.70
2022-08-04T06:16:51.217Z,30.60
2022-08-04T06:19:59.485Z,30.90
2022-08-04T06:22:50.684Z,31.20
2022-08-04T06:25:55.319Z,31.80
2022-08-04T06:28:43.582Z,32.00
2022-08-04T06:32:27.438Z,32.30
2022-08-04T06:34:50.637Z,32.60
2022-08-04T06:37:42.761Z,32.40
2022-08-04T06:40:33.787Z,32.40
2022-08-04T06:43:21.036Z,32.50
2022-08-04T06:46:08.444Z,32.60
2022-08-04T06:48:55.504Z,33.00
2022-08-04T06:51:48.940Z,33.10
2022-08-04T06:54:35.641Z,33.20
2022-08-04T06:57:24.878Z,33.60
2022-08-04T07:00:16.815Z,33.50
2022-08-04T07:03:03.874Z,33.80
2022-08-04T07:05:51.613Z,34.00
2022-08-04T07:08:38.096Z,34.10
2022-08-04T07:11:25.659Z,34.10
2022-08-04T07:14:12.134Z,34.10
2022-08-04T07:16:59.378Z,33.80
2022-08-04T07:19:45.245Z,33.70
2022-08-04T07:22:32.229Z,34.20
2022-08-04T07:25:19.159Z,34.30
2022-08-04T07:28:08.349Z,34.40
2022-08-04T07:30:56.816Z,34.50
2022-08-04T07:33:44.053Z,34.30
2022-08-04T07:36:36.054Z,34.10
2022-08-04T07:39:29.688Z,34.00
2022-08-04T07:42:19.329Z,34.10
2022-08-04T07:45:06.446Z,34.40
2022-08-04T07:48:04.760Z,34.50
2022-08-04T07:50:52.570Z,34.70
2022-08-04T07:53:53.986Z,34.70
2022-08-04T07:56:43.693Z,34.90
2022-08-04T07:59:31.232Z,35.20
2022-08-04T08:02:19.255Z,35.10
2022-08-04T08:05:07.985Z,35.00
2022-08-04T08:07:55.054Z,35.50
2022-08-04T08:10:46.934Z,35.50
2022-08-04T08:13:33.406Z,35.70
2022-08-04T08:16:21.166Z,35.80
2022-08-04T08:19:11.741Z,36.20
2022-08-04T08:22:00.560Z,36.50
2022-08-04T08:24:47.588Z,36.80
2022-08-04T08:27:34.505Z,37.30
2022-08-04T08:30:20.485Z,37.10
2022-08-04T08:33:10.791Z,36.90
2022-08-04T08:36:34.973Z,37.00
2022-08-04T08:39:41.272Z,37.30
2022-08-04T08:44:00.615Z,37.30
2022-08-04T08:46:49.465Z,37.60
2022-08-04T08:50:04.142Z,37.10
2022-08-04T08:53:18.453Z,37.10
2022-08-04T08:56:42.321Z,37.00
2022-08-04T08:59:50.616Z,36.00
2022-08-04T09:03:27.514Z,35.90
2022-08-04T09:06:29.526Z,36.40
2022-08-04T09:09:28.844Z,36.70
2022-08-04T09:12:38.865Z,37.40
2022-08-04T09:15:39.970Z,37.70
2022-08-04T09:18:45.183Z,37.80
2022-08-04T09:21:53.657Z,38.00
2022-08-04T09:25:04.765Z,37.50
2022-08-04T09:27:55.701Z,37.00
2022-08-04T09:30:49.324Z,37.10
2022-08-04T09:33:45.582Z,37.40
2022-08-04T09:36:39.656Z,37.60
2022-08-04T09:40:04.044Z,36.70
2022-08-04T09:42:59.096Z,37.00
2022-08-04T09:45:56.901Z,37.40
2022-08-04T09:49:13.527Z,37.70
2022-08-04T09:52:09.854Z,38.20
2022-08-04T09:55:31.643Z,38.00
2022-08-04T09:58:51.370Z,38.30
2022-08-04T10:01:39.782Z,38.60
2022-08-04T10:04:29.625Z,38.80
2022-08-04T10:08:15.176Z,38.80
2022-08-04T10:11:09.654Z,38.80
2022-08-04T10:14:03.129Z,38.90
2022-08-04T10:16:58.762Z,39.00
2022-08-04T10:19:47.339Z,38.70
2022-08-04T10:23:10.667Z,38.50
2022-08-04T10:26:27.196Z,38.30
2022-08-04T10:29:18.410Z,38.30
2022-08-04T10:32:07.098Z,37.80
2022-08-04T10:35:09.697Z,38.10
2022-08-04T10:38:04.936Z,37.90
2022-08-04T10:40:59.228Z,38.10
2022-08-04T10:44:00.171Z,38.40
2022-08-04T10:46:53.175Z,38.50
2022-08-04T10:49:45.735Z,38.70
2022-08-04T10:52:33.922Z,38.80
2022-08-04T10:56:07.261Z,39.20
2022-08-04T10:58:56.996Z,39.10
2022-08-04T11:01:59.950Z,38.50
2022-08-04T11:04:59.739Z,38.50
2022-08-04T11:07:50.371Z,38.10
2022-08-04T11:10:46.768Z,37.70
2022-08-04T11:13:47.042Z,37.40
2022-08-04T11:16:51.945Z,37.10
2022-08-04T11:20:18.198Z,37.30
2022-08-04T11:23:09.208Z,37.70
2022-08-04T11:26:12.911Z,37.60
2022-08-04T11:29:04.665Z,38.00
2022-08-04T11:31:52.153Z,37.80
2022-08-04T11:34:44.336Z,37.60
2022-08-04T11:37:48.431Z,37.40
2022-08-04T11:40:42.273Z,36.60
2022-08-04T11:44:03.190Z,36.30
2022-08-04T11:46:53.913Z,35.70
2022-08-04T11:49:57.400Z,35.30
2022-08-04T11:52:45.791Z,34.80
2022-08-04T11:55:32.633Z,34.30
2022-08-04T11:58:38.941Z,33.90
2022-08-04T12:01:28.518Z,33.70
2022-08-04T12:04:34.932Z,33.60
2022-08-04T12:07:31.811Z,33.70
2022-08-04T12:10:42.960Z,33.90
2022-08-04T12:13:36.616Z,34.00
2022-08-04T12:16:30.765Z,34.00
2022-08-04T12:19:30.900Z,33.90
2022-08-04T12:22:29.808Z,33.40
2022-08-04T12:25:44.857Z,33.00
2022-08-04T12:28:59.618Z,33.20
2022-08-04T12:31:46.133Z,33.30
2022-08-04T12:35:07.980Z,33.40
2022-08-04T12:38:05.094Z,33.40
2022-08-04T12:40:53.548Z,33.20
2022-08-04T12:43:44.189Z,33.00
2022-08-04T12:46:32.322Z,32.40
2022-08-04T12:49:18.853Z,32.10
2022-08-04T12:52:11.972Z,31.90
2022-08-04T12:54:59.214Z,32.30
2022-08-04T12:57:46.981Z,32.70
2022-08-04T13:00:41.193Z,32.70
2022-08-04T13:03:35.986Z,32.90
2022-08-04T13:06:31.635Z,32.90
2022-08-04T13:09:20.967Z,32.90
2022-08-04T13:12:20.942Z,33.00
2022-08-04T13:15:18.047Z,33.30
2022-08-04T13:18:15.239Z,33.20
2022-08-04T13:21:20.432Z,33.10
2022-08-04T13:24:21.270Z,33.20
2022-08-04T13:27:17.480Z,32.80
2022-08-04T13:30:24.521Z,32.70
2022-08-04T13:33:09.893Z,32.80
2022-08-04T13:35:59.670Z,33.10
2022-08-04T13:39:14.343Z,33.20
2022-08-04T13:42:05.478Z,33.30
2022-08-04T13:44:56.174Z,33.30
2022-08-04T13:47:43.522Z,33.00
2022-08-04T13:50:31.289Z,33.30
2022-08-04T13:53:21.896Z,33.30
2022-08-04T13:56:13.093Z,33.40
2022-08-04T13:59:03.127Z,33.90
2022-08-04T14:02:02.938Z,34.50
2022-08-04T14:04:55.144Z,35.50
2022-08-04T14:07:54.314Z,36.00
2022-08-04T14:10:40.680Z,36.30
2022-08-04T14:13:41.567Z,35.90
2022-08-04T14:16:28.176Z,35.40
2022-08-04T14:19:13.953Z,35.30
2022-08-04T14:22:00.077Z,35.30
2022-08-04T14:24:57.201Z,35.00
2022-08-04T14:27:51.900Z,34.90
2022-08-04T14:30:38.033Z,35.30
2022-08-04T14:34:01.349Z,35.80
2022-08-04T14:37:16.617Z,36.20
2022-08-04T14:40:07.922Z,36.40
2022-08-04T14:42:56.547Z,36.10
2022-08-04T14:45:54.583Z,36.20
2022-08-04T14:49:02.818Z,36.20
2022-08-04T14:51:58.579Z,36.20
2022-08-04T14:54:44.732Z,36.30
2022-08-04T14:58:32.940Z,36.10
2022-08-04T15:00:41.597Z,36.10
2022-08-04T15:03:30.384Z,36.10
2022-08-04T15:06:21.574Z,36.30
2022-08-04T15:09:10.872Z,36.40
2022-08-04T15:11:56.645Z,35.90
2022-08-04T15:14:44.618Z,35.80
2022-08-04T15:17:31.259Z,35.70
2022-08-04T15:20:17.805Z,34.90
2022-08-04T15:23:08.642Z,35.20
2022-08-04T15:26:00.469Z,35.80
2022-08-04T15:28:54.763Z,36.20
2022-08-04T15:32:06.086Z,36.10
2022-08-04T15:34:52.917Z,36.20
2022-08-04T15:38:03.218Z,36.10
2022-08-04T15:41:11.012Z,36.40
2022-08-04T15:44:15.593Z,35.80
2022-08-04T15:47:15.906Z,35.70
2022-08-04T15:50:13.070Z,35.50
2022-08-04T15:53:10.428Z,35.40
2022-08-04T15:55:59.575Z,35.60
2022-08-04T15:58:54.986Z,35.50
2022-08-04T16:01:40.766Z,35.70
2022-08-04T16:04:46.190Z,35.50
2022-08-04T16:07:58.548Z,35.40
2022-08-04T16:10:46.308Z,35.20
2022-08-04T16:13:32.125Z,34.90
2022-08-04T16:16:31.726Z,34.40
2022-08-04T16:19:25.997Z,34.30
2022-08-04T16:22:38.122Z,34.50
2022-08-04T16:25:52.010Z,34.70
2022-08-04T16:28:41.092Z,34.40
2022-08-04T16:31:26.978Z,34.40
2022-08-04T16:34:48.617Z,34.40
2022-08-04T16:37:20.441Z,34.30
2022-08-04T16:40:38.062Z,34.30
2022-08-04T16:43:31.965Z,34.00
2022-08-04T16:47:08.317Z,33.80
2022-08-04T16:50:02.230Z,33.40
2022-08-04T16:52:54.355Z,33.00
2022-08-04T16:55:47.126Z,32.80
2022-08-04T16:58:36.743Z,32.80
2022-08-04T17:01:33.217Z,32.80
2022-08-04T17:04:30.934Z,32.90
2022-08-04T17:07:16.841Z,32.70
2022-08-04T17:10:02.573Z,32.60
2022-08-04T17:12:48.521Z,32.60
2022-08-04T17:15:34.306Z,32.50
2022-08-04T17:18:26.478Z,32.40
2022-08-04T17:21:22.370Z,32.30
2022-08-04T17:24:16.595Z,32.20
2022-08-04T17:28:10.934Z,31.90
2022-08-04T17:30:27.304Z,31.60
2022-08-04T17:33:17.920Z,31.00
2022-08-04T17:36:05.145Z,30.40
2022-08-04T17:38:56.881Z,29.90
2022-08-04T17:41:49.036Z,29.50
2022-08-04T17:44:37.532Z,29.20
2022-08-04T17:47:23.810Z,29.00
2022-08-04T17:50:11.492Z,28.60
2022-08-04T17:53:12.135Z,28.50
2022-08-04T17:55:58.610Z,28.40
2022-08-04T17:59:07.543Z,28.20
2022-08-04T18:01:59.945Z,28.00
2022-08-04T18:05:06.247Z,27.80
2022-08-04T18:08:39.724Z,27.50
2022-08-04T18:11:01.618Z,27.30
2022-08-04T18:13:53.551Z,27.20
2022-08-04T18:16:44.800Z,27.20
2022-08-04T18:19:31.554Z,27.10
2022-08-04T18:22:27.972Z,27.00
2022-08-04T18:25:21.378Z,26.90
2022-08-04T18:28:13.862Z,26.80
2022-08-04T18:31:01.664Z,26.80
2022-08-04T18:33:56.969Z,26.70
2022-08-04T18:36:55.412Z,26.60
2022-08-04T18:40:11.234Z,26.50
2022-08-04T18:42:49.967Z,26.40
2022-08-04T18:45:35.811Z,26.40
2022-08-04T18:48:21.577Z,26.30
2022-08-04T18:51:24.943Z,26.20
2022-08-04T18:54:16.680Z,25.90
2022-08-04T18:57:32.465Z,25.20
2022-08-04T19:00:13.020Z,24.60
2022-08-04T19:02:59.461Z,24.10
2022-08-04T19:05:48.621Z,23.60
2022-08-04T19:08:42.421Z,23.40
2022-08-04T19:11:54.030Z,23.40
2022-08-04T19:14:34.398Z,23.50
2022-08-04T19:17:54.149Z,23.40
2022-08-04T19:20:28.245Z,23.50
2022-08-04T19:24:10.710Z,23.70
2022-08-04T19:26:28.156Z,23.70
2022-08-04T19:29:15.230Z,23.70
2022-08-04T19:32:01.071Z,23.60
2022-08-04T19:34:48.006Z,23.70
2022-08-04T19:38:01.274Z,23.70
2022-08-04T19:40:40.962Z,23.70
2022-08-04T19:43:36.565Z,23.80
2022-08-04T19:46:29.917Z,23.70
2022-08-04T19:50:05.372Z,23.60
2022-08-04T19:52:33.216Z,23.50
2022-08-04T19:55:36.799Z,23.50
2022-08-04T19:58:26.247Z,23.50
2022-08-04T20:01:31.218Z,23.40
2022-08-04T20:04:17.795Z,23.50
2022-08-04T20:07:04.587Z,23.50
2022-08-04T20:09:53.524Z,23.50
2022-08-04T20:12:42.141Z,23.50
2022-08-04T20:15:28.301Z,23.40
2022-08-04T20:18:35.816Z,23.40
2022-08-04T20:21:36.710Z,23.50
2022-08-04T20:27:51.457Z,23.40
2022-08-04T20:30:37.175Z,23.20
2022-08-04T20:33:23.286Z,23.00
2022-08-04T20:36:09.285Z,23.00
2022-08-04T20:38:55.683Z,22.80
2022-08-04T20:41:41.523Z,22.70
2022-08-04T20:44:31.001Z,22.60
2022-08-04T20:47:17.035Z,22.40
2022-08-04T20:50:09.030Z,22.30
2022-08-04T20:52:55.121Z,22.20
2022-08-04T20:55:54.783Z,22.20
2022-08-04T20:58:42.098Z,22.20
2022-08-04T21:01:30.584Z,22.00
2022-08-04T21:04:31.949Z,21.90
2022-08-04T21:07:18.499Z,21.80
2022-08-04T21:10:05.096Z,21.70
2022-08-04T21:12:52.012Z,21.50
2022-08-04T21:15:58.282Z,21.50
2022-08-04T21:18:43.682Z,21.60
2022-08-04T21:21:35.238Z,21.50
2022-08-04T21:24:26.096Z,21.50
2022-08-04T21:27:13.034Z,21.50
2022-08-04T21:29:59.833Z,21.40
2022-08-04T21:32:46.310Z,21.40
2022-08-04T21:35:38.295Z,21.40
2022-08-04T21:41:32.965Z,21.30
2022-08-04T21:44:18.913Z,21.20
2022-08-04T21:47:05.020Z,21.20
2022-08-04T21:50:02.085Z,21.30
2022-08-04T21:52:49.357Z,21.30
2022-08-04T21:56:06.223Z,21.30
2022-08-04T21:58:44.623Z,21.40
2022-08-04T22:01:49.995Z,21.60
2022-08-04T22:04:37.039Z,21.60
2022-08-04T22:07:23.919Z,21.70
2022-08-04T22:10:32.771Z,21.80
2022-08-04T22:13:22.787Z,21.90
2022-08-04T22:16:08.621Z,22.10
2022-08-04T22:18:54.874Z,22.10
2022-08-04T22:21:46.500Z,22.20
2022-08-04T22:24:32.303Z,22.20
2022-08-04T22:27:36.833Z,22.30
2022-08-04T22:30:23.951Z,22.20
2022-08-04T22:33:10.313Z,22.30
2022-08-04T22:35:57.988Z,22.20
2022-08-04T22:38:48.782Z,22.30
2022-08-04T22:42:03.196Z,22.40
2022-08-04T22:44:44.692Z,22.50
2022-08-04T22:47:31.490Z,22.50
2022-08-04T22:50:27.815Z,22.60
2022-08-04T22:53:17.742Z,22.70
2022-08-04T22:56:09.602Z,22.70
2022-08-04T22:58:56.885Z,22.80
2022-08-04T23:02:01.178Z,22.80
2022-08-04T23:04:49.988Z,22.90
2022-08-04T23:07:49.174Z,22.90
2022-08-04T23:10:35.372Z,23.00
2022-08-04T23:13:21.207Z,23.00
2022-08-04T23:16:10.305Z,22.90
2022-08-04T23:18:56.543Z,23.00
2022-08-04T23:21:47.825Z,23.00
2022-08-04T23:24:47.820Z,23.00
2022-08-04T23:27:39.044Z,22.90
2022-08-04T23:30:30.477Z,22.90
2022-08-04T23:33:16.795Z,22.90
2022-08-04T23:36:02.878Z,22.90
2022-08-04T23:38:49.005Z,22.90
2022-08-04T23:41:54.393Z,22.90
2022-08-04T23:44:41.406Z,22.90
2022-08-04T23:48:15.764Z,22.90
2022-08-04T23:50:33.311Z,23.00
2022-08-04T23:53:22.674Z,22.90
2022-08-04T23:56:10.175Z,22.90
2022-08-04T23:59:06.097Z,22.80
